sensor_id;sensor_type;location;lat;lon;timestamp;temperature;humidity
11385;DHT22;5747;56.748;13.882;2023-07-13T00:01:13;13.90;99.90
11385;DHT22;5747;56.748;13.882;2023-07-13T00:03:42;13.90;99.90
11385;DHT22;5747;56.748;13.882;2023-07-13T00:06:10;13.90;99.90
11385;DHT22;5747;56.748;13.882;2023-07-13T00:08:39;13.70;99.90
11385;DHT22;5747;56.748;13.882;2023-07-13T00:11:07;13.80;99.90
11385;DHT22;5747;56.748;13.882;2023-07-13T00:13:37;13.70;99.90
11385;DHT22;5747;56.748;13.882;2023-07-13T00:16:08;13.60;99.90
11385;DHT22;5747;56.748;13.882;2023-07-13T00:18:37;13.50;99.90
11385;DHT22;5747;56.748;13.882;2023-07-13T00:21:05;13.30;99.90
11385;DHT22;5747;56.748;13.882;2023-07-13T00:23:33;13.30;99.90
11385;DHT22;5747;56.748;13.882;2023-07-13T00:26:03;13.30;99.90
11385;DHT22;5747;56.748;13.882;2023-07-13T00:28:31;13.20;99.90
11385;DHT22;5747;56.748;13.882;2023-07-13T00:31:00;13.10;99.90
11385;DHT22;5747;56.748;13.882;2023-07-13T00:33:30;13.10;99.90
11385;DHT22;5747;56.748;13.882;2023-07-13T00:35:58;13.10;99.90
11385;DHT22;5747;56.748;13.882;2023-07-13T00:38:26;13.00;99.90
11385;DHT22;5747;56.748;13.882;2023-07-13T00:40:54;12.90;99.90
11385;DHT22;5747;56.748;13.882;2023-07-13T00:43:26;12.90;99.90
11385;DHT22;5747;56.748;13.882;2023-07-13T00:46:16;12.90;99.90
11385;DHT22;5747;56.748;13.882;2023-07-13T00:48:48;12.90;99.90
11385;DHT22;5747;56.748;13.882;2023-07-13T00:51:20;13.00;99.90
11385;DHT22;5747;56.748;13.882;2023-07-13T00:53:50;13.00;99.90
11385;DHT22;5747;56.748;13.882;2023-07-13T00:56:19;13.00;99.90
11385;DHT22;5747;56.748;13.882;2023-07-13T00:58:48;13.10;99.90
11385;DHT22;5747;56.748;13.882;2023-07-13T01:01:18;13.10;99.90
11385;DHT22;5747;56.748;13.882;2023-07-13T01:03:47;13.00;99.90
11385;DHT22;5747;56.748;13.882;2023-07-13T01:06:16;13.00;99.90
11385;DHT22;5747;56.748;13.882;2023-07-13T01:08:45;13.10;99.90
11385;DHT22;5747;56.748;13.882;2023-07-13T01:11:18;13.00;99.90
11385;DHT22;5747;56.748;13.882;2023-07-13T01:13:47;12.90;99.90
11385;DHT22;5747;56.748;13.882;2023-07-13T01:16:19;12.90;99.90
11385;DHT22;5747;56.748;13.882;2023-07-13T01:18:51;12.80;99.90
11385;DHT22;5747;56.748;13.882;2023-07-13T01:21:21;12.70;99.90
11385;DHT22;5747;56.748;13.882;2023-07-13T01:23:49;12.60;99.90
11385;DHT22;5747;56.748;13.882;2023-07-13T01:26:17;12.50;99.90
11385;DHT22;5747;56.748;13.882;2023-07-13T01:28:45;12.50;99.90
11385;DHT22;5747;56.748;13.882;2023-07-13T01:31:13;12.40;99.90
11385;DHT22;5747;56.748;13.882;2023-07-13T01:33:42;12.30;99.90
11385;DHT22;5747;56.748;13.882;2023-07-13T01:36:11;12.30;99.90
11385;DHT22;5747;56.748;13.882;2023-07-13T01:38:41;12.20;99.90
11385;DHT22;5747;56.748;13.882;2023-07-13T01:41:11;12.20;99.90
11385;DHT22;5747;56.748;13.882;2023-07-13T01:43:39;12.20;99.90
11385;DHT22;5747;56.748;13.882;2023-07-13T01:46:07;12.10;99.90
11385;DHT22;5747;56.748;13.882;2023-07-13T01:48:42;12.00;99.90
11385;DHT22;5747;56.748;13.882;2023-07-13T01:51:16;11.90;99.90
11385;DHT22;5747;56.748;13.882;2023-07-13T01:53:46;11.90;99.90
11385;DHT22;5747;56.748;13.882;2023-07-13T01:56:14;11.90;99.90
11385;DHT22;5747;56.748;13.882;2023-07-13T01:58:42;11.80;99.90
11385;DHT22;5747;56.748;13.882;2023-07-13T02:01:10;11.70;99.90
11385;DHT22;5747;56.748;13.882;2023-07-13T02:03:38;11.70;99.90
11385;DHT22;5747;56.748;13.882;2023-07-13T02:06:06;11.70;99.90
11385;DHT22;5747;56.748;13.882;2023-07-13T02:08:36;11.70;99.90
11385;DHT22;5747;56.748;13.882;2023-07-13T02:11:06;11.60;99.90
11385;DHT22;5747;56.748;13.882;2023-07-13T02:13:34;11.50;99.90
11385;DHT22;5747;56.748;13.882;2023-07-13T02:16:03;11.50;99.90
11385;DHT22;5747;56.748;13.882;2023-07-13T02:18:31;11.50;99.90
11385;DHT22;5747;56.748;13.882;2023-07-13T02:20:59;11.50;99.90
11385;DHT22;5747;56.748;13.882;2023-07-13T02:23:27;11.50;99.90
11385;DHT22;5747;56.748;13.882;2023-07-13T02:25:56;11.50;99.90
11385;DHT22;5747;56.748;13.882;2023-07-13T02:28:25;11.50;99.90
11385;DHT22;5747;56.748;13.882;2023-07-13T02:30:53;11.50;99.90
11385;DHT22;5747;56.748;13.882;2023-07-13T02:33:22;11.50;99.90
11385;DHT22;5747;56.748;13.882;2023-07-13T02:35:50;11.50;99.90
11385;DHT22;5747;56.748;13.882;2023-07-13T02:38:18;11.60;99.90
11385;DHT22;5747;56.748;13.882;2023-07-13T02:40:47;11.50;99.90
11385;DHT22;5747;56.748;13.882;2023-07-13T02:43:15;11.50;99.90
11385;DHT22;5747;56.748;13.882;2023-07-13T02:45:45;11.50;99.90
11385;DHT22;5747;56.748;13.882;2023-07-13T02:48:14;11.50;99.90
11385;DHT22;5747;56.748;13.882;2023-07-13T02:50:43;11.50;99.90
11385;DHT22;5747;56.748;13.882;2023-07-13T02:53:12;11.50;99.90
11385;DHT22;5747;56.748;13.882;2023-07-13T02:55:40;11.60;99.90
11385;DHT22;5747;56.748;13.882;2023-07-13T02:58:14;11.70;99.90
11385;DHT22;5747;56.748;13.882;2023-07-13T03:00:46;11.70;99.90
11385;DHT22;5747;56.748;13.882;2023-07-13T03:03:14;11.70;99.90
11385;DHT22;5747;56.748;13.882;2023-07-13T03:05:44;11.80;99.90
11385;DHT22;5747;56.748;13.882;2023-07-13T03:08:21;11.90;99.90
11385;DHT22;5747;56.748;13.882;2023-07-13T03:10:59;11.90;99.90
11385;DHT22;5747;56.748;13.882;2023-07-13T03:13:31;12.00;99.90
11385;DHT22;5747;56.748;13.882;2023-07-13T03:16:01;12.20;99.90
11385;DHT22;5747;56.748;13.882;2023-07-13T03:18:29;12.60;99.90
11385;DHT22;5747;56.748;13.882;2023-07-13T03:21:02;12.80;99.90
11385;DHT22;5747;56.748;13.882;2023-07-13T03:23:30;13.00;99.90
11385;DHT22;5747;56.748;13.882;2023-07-13T03:26:04;13.00;99.90
11385;DHT22;5747;56.748;13.882;2023-07-13T03:28:33;13.10;99.90
11385;DHT22;5747;56.748;13.882;2023-07-13T03:31:06;13.10;99.90
11385;DHT22;5747;56.748;13.882;2023-07-13T03:33:35;13.20;99.90
11385;DHT22;5747;56.748;13.882;2023-07-13T03:36:05;13.30;99.90
11385;DHT22;5747;56.748;13.882;2023-07-13T03:38:35;13.70;99.90
11385;DHT22;5747;56.748;13.882;2023-07-13T03:41:04;14.10;99.90
11385;DHT22;5747;56.748;13.882;2023-07-13T03:43:32;14.50;99.90
11385;DHT22;5747;56.748;13.882;2023-07-13T03:46:00;15.00;99.90
11385;DHT22;5747;56.748;13.882;2023-07-13T03:48:30;15.50;99.90
11385;DHT22;5747;56.748;13.882;2023-07-13T03:50:58;16.00;99.90
11385;DHT22;5747;56.748;13.882;2023-07-13T03:53:27;16.50;99.90
11385;DHT22;5747;56.748;13.882;2023-07-13T03:55:55;17.10;99.90
11385;DHT22;5747;56.748;13.882;2023-07-13T03:58:31;17.50;99.90
11385;DHT22;5747;56.748;13.882;2023-07-13T04:01:11;17.40;99.90
11385;DHT22;5747;56.748;13.882;2023-07-13T04:03:41;17.20;99.90
11385;DHT22;5747;56.748;13.882;2023-07-13T04:06:15;16.80;99.90
11385;DHT22;5747;56.748;13.882;2023-07-13T04:08:49;16.00;99.90
11385;DHT22;5747;56.748;13.882;2023-07-13T04:11:18;15.80;99.90
11385;DHT22;5747;56.748;13.882;2023-07-13T04:13:47;15.70;99.90
11385;DHT22;5747;56.748;13.882;2023-07-13T04:16:16;15.30;99.90
11385;DHT22;5747;56.748;13.882;2023-07-13T04:18:47;15.20;99.90
11385;DHT22;5747;56.748;13.882;2023-07-13T04:21:16;15.20;99.90
11385;DHT22;5747;56.748;13.882;2023-07-13T04:23:44;15.20;99.90
11385;DHT22;5747;56.748;13.882;2023-07-13T04:26:12;15.60;99.90
11385;DHT22;5747;56.748;13.882;2023-07-13T04:28:40;16.30;99.90
11385;DHT22;5747;56.748;13.882;2023-07-13T04:31:08;17.20;99.90
11385;DHT22;5747;56.748;13.882;2023-07-13T04:33:37;17.40;99.90
11385;DHT22;5747;56.748;13.882;2023-07-13T04:36:08;17.80;99.90
11385;DHT22;5747;56.748;13.882;2023-07-13T04:38:37;18.30;99.90
11385;DHT22;5747;56.748;13.882;2023-07-13T04:41:07;18.70;99.90
11385;DHT22;5747;56.748;13.882;2023-07-13T04:43:36;18.80;99.90
11385;DHT22;5747;56.748;13.882;2023-07-13T04:46:06;19.10;99.90
11385;DHT22;5747;56.748;13.882;2023-07-13T04:48:34;19.70;99.90
11385;DHT22;5747;56.748;13.882;2023-07-13T04:51:03;20.20;99.90
11385;DHT22;5747;56.748;13.882;2023-07-13T04:53:33;19.70;99.90
11385;DHT22;5747;56.748;13.882;2023-07-13T04:56:02;20.20;99.90
11385;DHT22;5747;56.748;13.882;2023-07-13T04:58:30;20.40;99.90
11385;DHT22;5747;56.748;13.882;2023-07-13T05:01:00;20.00;99.90
11385;DHT22;5747;56.748;13.882;2023-07-13T05:03:29;19.50;99.90
11385;DHT22;5747;56.748;13.882;2023-07-13T05:06:00;18.90;99.90
11385;DHT22;5747;56.748;13.882;2023-07-13T05:08:28;18.60;99.90
11385;DHT22;5747;56.748;13.882;2023-07-13T05:10:59;18.20;99.90
11385;DHT22;5747;56.748;13.882;2023-07-13T05:13:28;17.90;99.90
11385;DHT22;5747;56.748;13.882;2023-07-13T05:15:58;17.70;99.90
11385;DHT22;5747;56.748;13.882;2023-07-13T05:18:27;17.30;99.90
11385;DHT22;5747;56.748;13.882;2023-07-13T05:21:00;17.20;99.90
11385;DHT22;5747;56.748;13.882;2023-07-13T05:23:29;17.10;99.90
11385;DHT22;5747;56.748;13.882;2023-07-13T05:25:59;16.70;99.90
11385;DHT22;5747;56.748;13.882;2023-07-13T05:28:27;16.70;99.90
11385;DHT22;5747;56.748;13.882;2023-07-13T05:30:56;16.60;99.90
11385;DHT22;5747;56.748;13.882;2023-07-13T05:33:26;16.50;99.90
11385;DHT22;5747;56.748;13.882;2023-07-13T05:35:55;16.40;99.90
11385;DHT22;5747;56.748;13.882;2023-07-13T05:38:23;16.20;99.90
11385;DHT22;5747;56.748;13.882;2023-07-13T05:40:53;16.50;99.90
11385;DHT22;5747;56.748;13.882;2023-07-13T05:43:24;16.90;99.90
11385;DHT22;5747;56.748;13.882;2023-07-13T05:45:53;17.40;99.90
11385;DHT22;5747;56.748;13.882;2023-07-13T05:48:22;17.70;99.90
11385;DHT22;5747;56.748;13.882;2023-07-13T05:50:50;18.10;99.90
11385;DHT22;5747;56.748;13.882;2023-07-13T05:53:18;18.40;99.90
11385;DHT22;5747;56.748;13.882;2023-07-13T05:55:47;18.20;99.90
11385;DHT22;5747;56.748;13.882;2023-07-13T05:58:17;18.40;99.90
11385;DHT22;5747;56.748;13.882;2023-07-13T06:00:47;18.40;99.90
11385;DHT22;5747;56.748;13.882;2023-07-13T06:03:16;18.30;99.90
11385;DHT22;5747;56.748;13.882;2023-07-13T06:05:44;18.30;99.90
11385;DHT22;5747;56.748;13.882;2023-07-13T06:08:12;18.10;99.90
11385;DHT22;5747;56.748;13.882;2023-07-13T06:10:40;18.00;99.90
11385;DHT22;5747;56.748;13.882;2023-07-13T06:13:08;18.10;99.90
11385;DHT22;5747;56.748;13.882;2023-07-13T06:15:36;17.90;99.90
11385;DHT22;5747;56.748;13.882;2023-07-13T06:18:06;17.90;99.90
11385;DHT22;5747;56.748;13.882;2023-07-13T06:20:34;18.00;99.90
11385;DHT22;5747;56.748;13.882;2023-07-13T06:23:02;18.10;99.90
11385;DHT22;5747;56.748;13.882;2023-07-13T06:25:30;17.80;99.90
11385;DHT22;5747;56.748;13.882;2023-07-13T06:27:59;17.60;99.90
11385;DHT22;5747;56.748;13.882;2023-07-13T06:30:27;17.80;99.90
11385;DHT22;5747;56.748;13.882;2023-07-13T06:32:55;17.80;99.90
11385;DHT22;5747;56.748;13.882;2023-07-13T06:35:25;17.90;99.90
11385;DHT22;5747;56.748;13.882;2023-07-13T06:37:53;17.70;99.90
11385;DHT22;5747;56.748;13.882;2023-07-13T06:40:21;17.60;99.90
11385;DHT22;5747;56.748;13.882;2023-07-13T06:42:49;17.50;99.90
11385;DHT22;5747;56.748;13.882;2023-07-13T06:45:17;17.70;99.90
11385;DHT22;5747;56.748;13.882;2023-07-13T06:47:46;18.30;99.90
11385;DHT22;5747;56.748;13.882;2023-07-13T06:50:14;19.20;99.90
11385;DHT22;5747;56.748;13.882;2023-07-13T06:52:44;19.90;99.90
11385;DHT22;5747;56.748;13.882;2023-07-13T06:55:12;20.00;99.90
11385;DHT22;5747;56.748;13.882;2023-07-13T06:57:40;20.00;99.90
11385;DHT22;5747;56.748;13.882;2023-07-13T07:00:09;19.80;99.90
11385;DHT22;5747;56.748;13.882;2023-07-13T07:02:37;19.60;99.90
11385;DHT22;5747;56.748;13.882;2023-07-13T07:05:06;19.70;99.90
11385;DHT22;5747;56.748;13.882;2023-07-13T07:07:34;19.60;99.90
11385;DHT22;5747;56.748;13.882;2023-07-13T07:10:04;18.90;99.90
11385;DHT22;5747;56.748;13.882;2023-07-13T07:12:33;18.50;99.90
11385;DHT22;5747;56.748;13.882;2023-07-13T07:15:01;18.60;99.90
11385;DHT22;5747;56.748;13.882;2023-07-13T07:17:29;18.30;99.90
11385;DHT22;5747;56.748;13.882;2023-07-13T07:19:57;18.00;99.90
11385;DHT22;5747;56.748;13.882;2023-07-13T07:22:25;17.90;99.90
11385;DHT22;5747;56.748;13.882;2023-07-13T07:24:54;17.60;99.90
11385;DHT22;5747;56.748;13.882;2023-07-13T07:27:24;17.50;99.90
11385;DHT22;5747;56.748;13.882;2023-07-13T07:29:55;17.30;99.90
11385;DHT22;5747;56.748;13.882;2023-07-13T07:32:29;17.70;99.90
11385;DHT22;5747;56.748;13.882;2023-07-13T07:35:17;18.00;99.90
11385;DHT22;5747;56.748;13.882;2023-07-13T07:37:46;18.10;99.90
11385;DHT22;5747;56.748;13.882;2023-07-13T07:40:16;18.10;99.90
11385;DHT22;5747;56.748;13.882;2023-07-13T07:42:48;17.70;99.90
11385;DHT22;5747;56.748;13.882;2023-07-13T07:45:17;17.60;99.90
11385;DHT22;5747;56.748;13.882;2023-07-13T07:47:45;18.30;99.90
11385;DHT22;5747;56.748;13.882;2023-07-13T07:50:13;18.60;99.90
11385;DHT22;5747;56.748;13.882;2023-07-13T07:52:42;18.80;99.90
11385;DHT22;5747;56.748;13.882;2023-07-13T07:55:11;19.20;99.90
11385;DHT22;5747;56.748;13.882;2023-07-13T07:57:42;19.10;99.90
11385;DHT22;5747;56.748;13.882;2023-07-13T08:00:16;19.00;99.90
11385;DHT22;5747;56.748;13.882;2023-07-13T08:02:47;18.90;99.90
11385;DHT22;5747;56.748;13.882;2023-07-13T08:05:18;18.90;99.90
11385;DHT22;5747;56.748;13.882;2023-07-13T08:08:03;19.20;99.90
11385;DHT22;5747;56.748;13.882;2023-07-13T08:10:31;19.70;99.90
11385;DHT22;5747;56.748;13.882;2023-07-13T08:12:59;20.00;99.90
11385;DHT22;5747;56.748;13.882;2023-07-13T08:15:31;19.80;99.90
11385;DHT22;5747;56.748;13.882;2023-07-13T08:18:00;19.10;99.90
11385;DHT22;5747;56.748;13.882;2023-07-13T08:20:28;18.90;99.90
11385;DHT22;5747;56.748;13.882;2023-07-13T08:22:56;19.20;99.90
11385;DHT22;5747;56.748;13.882;2023-07-13T08:25:25;19.40;99.90
11385;DHT22;5747;56.748;13.882;2023-07-13T08:27:53;20.00;99.90
11385;DHT22;5747;56.748;13.882;2023-07-13T08:30:21;20.10;99.90
11385;DHT22;5747;56.748;13.882;2023-07-13T08:32:51;20.00;99.90
11385;DHT22;5747;56.748;13.882;2023-07-13T08:35:20;20.40;99.90
11385;DHT22;5747;56.748;13.882;2023-07-13T08:37:48;20.60;99.90
11385;DHT22;5747;56.748;13.882;2023-07-13T08:40:17;20.00;99.90
11385;DHT22;5747;56.748;13.882;2023-07-13T08:42:53;19.40;99.90
11385;DHT22;5747;56.748;13.882;2023-07-13T08:45:26;18.50;99.90
11385;DHT22;5747;56.748;13.882;2023-07-13T08:48:02;18.50;99.90
11385;DHT22;5747;56.748;13.882;2023-07-13T08:50:35;18.00;99.90
11385;DHT22;5747;56.748;13.882;2023-07-13T08:53:32;17.40;99.90
11385;DHT22;5747;56.748;13.882;2023-07-13T08:56:04;17.10;99.90
11385;DHT22;5747;56.748;13.882;2023-07-13T08:58:36;17.00;99.90
11385;DHT22;5747;56.748;13.882;2023-07-13T09:01:15;17.40;99.90
11385;DHT22;5747;56.748;13.882;2023-07-13T09:03:52;17.70;99.90
11385;DHT22;5747;56.748;13.882;2023-07-13T09:06:39;17.80;99.90
11385;DHT22;5747;56.748;13.882;2023-07-13T09:09:17;18.00;99.90
11385;DHT22;5747;56.748;13.882;2023-07-13T09:11:52;18.10;99.90
11385;DHT22;5747;56.748;13.882;2023-07-13T09:14:34;18.50;99.90
11385;DHT22;5747;56.748;13.882;2023-07-13T09:17:05;18.90;99.90
11385;DHT22;5747;56.748;13.882;2023-07-13T09:19:35;19.50;99.90
11385;DHT22;5747;56.748;13.882;2023-07-13T09:22:06;19.80;99.90
11385;DHT22;5747;56.748;13.882;2023-07-13T09:24:41;19.60;99.90
11385;DHT22;5747;56.748;13.882;2023-07-13T09:27:14;19.40;99.90
11385;DHT22;5747;56.748;13.882;2023-07-13T09:29:48;19.50;99.90
11385;DHT22;5747;56.748;13.882;2023-07-13T09:32:21;19.70;99.90
11385;DHT22;5747;56.748;13.882;2023-07-13T09:34:53;20.30;99.90
11385;DHT22;5747;56.748;13.882;2023-07-13T09:37:26;20.70;99.90
11385;DHT22;5747;56.748;13.882;2023-07-13T09:39:56;20.90;99.90
11385;DHT22;5747;56.748;13.882;2023-07-13T09:42:26;21.00;99.90
11385;DHT22;5747;56.748;13.882;2023-07-13T09:44:59;21.10;99.90
11385;DHT22;5747;56.748;13.882;2023-07-13T09:47:30;20.80;99.90
11385;DHT22;5747;56.748;13.882;2023-07-13T09:50:02;20.70;99.90
11385;DHT22;5747;56.748;13.882;2023-07-13T09:52:41;19.80;99.90
11385;DHT22;5747;56.748;13.882;2023-07-13T09:55:25;19.00;99.90
11385;DHT22;5747;56.748;13.882;2023-07-13T09:57:54;18.20;99.90
11385;DHT22;5747;56.748;13.882;2023-07-13T10:00:25;17.80;99.90
11385;DHT22;5747;56.748;13.882;2023-07-13T10:03:05;17.70;99.90
11385;DHT22;5747;56.748;13.882;2023-07-13T10:05:40;17.80;99.90
11385;DHT22;5747;56.748;13.882;2023-07-13T10:08:22;17.10;99.90
11385;DHT22;5747;56.748;13.882;2023-07-13T10:10:58;16.70;99.90
11385;DHT22;5747;56.748;13.882;2023-07-13T10:13:31;16.20;99.90
11385;DHT22;5747;56.748;13.882;2023-07-13T10:16:01;16.00;99.90
11385;DHT22;5747;56.748;13.882;2023-07-13T10:18:40;16.00;99.90
11385;DHT22;5747;56.748;13.882;2023-07-13T10:21:14;16.00;99.90
11385;DHT22;5747;56.748;13.882;2023-07-13T10:23:51;15.90;99.90
11385;DHT22;5747;56.748;13.882;2023-07-13T10:26:23;16.20;99.90
11385;DHT22;5747;56.748;13.882;2023-07-13T10:28:55;16.50;99.90
11385;DHT22;5747;56.748;13.882;2023-07-13T10:31:24;16.70;99.90
11385;DHT22;5747;56.748;13.882;2023-07-13T10:33:53;16.90;99.90
11385;DHT22;5747;56.748;13.882;2023-07-13T10:36:30;17.20;99.90
11385;DHT22;5747;56.748;13.882;2023-07-13T10:39:02;17.60;99.90
11385;DHT22;5747;56.748;13.882;2023-07-13T10:41:34;17.80;99.90
11385;DHT22;5747;56.748;13.882;2023-07-13T10:44:04;17.60;99.90
11385;DHT22;5747;56.748;13.882;2023-07-13T10:46:37;17.50;99.90
11385;DHT22;5747;56.748;13.882;2023-07-13T10:49:08;17.30;99.90
11385;DHT22;5747;56.748;13.882;2023-07-13T10:51:40;17.60;99.90
11385;DHT22;5747;56.748;13.882;2023-07-13T10:54:17;17.70;99.90
11385;DHT22;5747;56.748;13.882;2023-07-13T10:56:49;17.80;99.90
11385;DHT22;5747;56.748;13.882;2023-07-13T10:59:24;17.90;99.90
11385;DHT22;5747;56.748;13.882;2023-07-13T11:01:57;18.20;99.90
11385;DHT22;5747;56.748;13.882;2023-07-13T11:04:27;18.10;99.90
11385;DHT22;5747;56.748;13.882;2023-07-13T11:06:59;18.10;99.90
11385;DHT22;5747;56.748;13.882;2023-07-13T11:09:40;18.20;99.90
11385;DHT22;5747;56.748;13.882;2023-07-13T11:12:28;18.40;99.90
11385;DHT22;5747;56.748;13.882;2023-07-13T11:15:07;18.50;99.90
11385;DHT22;5747;56.748;13.882;2023-07-13T11:17:48;18.60;99.90
11385;DHT22;5747;56.748;13.882;2023-07-13T11:20:32;18.20;99.90
11385;DHT22;5747;56.748;13.882;2023-07-13T11:23:21;18.10;99.90
11385;DHT22;5747;56.748;13.882;2023-07-13T11:25:54;18.10;99.90
11385;DHT22;5747;56.748;13.882;2023-07-13T11:28:24;18.30;99.90
11385;DHT22;5747;56.748;13.882;2023-07-13T11:31:02;18.40;99.90
11385;DHT22;5747;56.748;13.882;2023-07-13T11:33:56;18.50;99.90
11385;DHT22;5747;56.748;13.882;2023-07-13T11:36:30;18.70;99.90
11385;DHT22;5747;56.748;13.882;2023-07-13T11:39:04;18.60;99.90
11385;DHT22;5747;56.748;13.882;2023-07-13T11:41:36;18.60;99.90
11385;DHT22;5747;56.748;13.882;2023-07-13T11:44:12;18.70;99.90
11385;DHT22;5747;56.748;13.882;2023-07-13T11:46:45;19.10;99.90
11385;DHT22;5747;56.748;13.882;2023-07-13T11:49:16;19.10;99.90
11385;DHT22;5747;56.748;13.882;2023-07-13T11:51:46;19.10;99.90
11385;DHT22;5747;56.748;13.882;2023-07-13T11:54:27;18.70;99.90
11385;DHT22;5747;56.748;13.882;2023-07-13T11:57:01;18.60;99.90
11385;DHT22;5747;56.748;13.882;2023-07-13T11:59:34;18.90;99.90
11385;DHT22;5747;56.748;13.882;2023-07-13T12:02:16;19.40;99.90
11385;DHT22;5747;56.748;13.882;2023-07-13T12:04:44;19.90;99.90
11385;DHT22;5747;56.748;13.882;2023-07-13T12:07:16;20.00;99.90
11385;DHT22;5747;56.748;13.882;2023-07-13T12:09:46;19.90;99.90
11385;DHT22;5747;56.748;13.882;2023-07-13T12:12:17;19.80;99.90
11385;DHT22;5747;56.748;13.882;2023-07-13T12:14:46;19.50;99.90
11385;DHT22;5747;56.748;13.882;2023-07-13T12:17:17;19.40;99.90
11385;DHT22;5747;56.748;13.882;2023-07-13T12:19:47;19.30;99.90
11385;DHT22;5747;56.748;13.882;2023-07-13T12:22:17;19.50;99.90
11385;DHT22;5747;56.748;13.882;2023-07-13T12:24:48;19.60;99.90
11385;DHT22;5747;56.748;13.882;2023-07-13T12:27:20;19.70;99.90
11385;DHT22;5747;56.748;13.882;2023-07-13T12:29:51;19.80;99.90
11385;DHT22;5747;56.748;13.882;2023-07-13T12:32:20;19.90;99.90
11385;DHT22;5747;56.748;13.882;2023-07-13T12:34:54;19.80;99.90
11385;DHT22;5747;56.748;13.882;2023-07-13T12:37:23;18.90;99.90
11385;DHT22;5747;56.748;13.882;2023-07-13T12:39:53;18.70;99.90
11385;DHT22;5747;56.748;13.882;2023-07-13T12:42:24;19.00;99.90
11385;DHT22;5747;56.748;13.882;2023-07-13T12:44:58;19.50;99.90
11385;DHT22;5747;56.748;13.882;2023-07-13T12:47:27;20.00;99.90
11385;DHT22;5747;56.748;13.882;2023-07-13T12:49:58;20.40;99.90
11385;DHT22;5747;56.748;13.882;2023-07-13T12:52:31;20.70;99.90
11385;DHT22;5747;56.748;13.882;2023-07-13T12:55:06;20.50;99.90
11385;DHT22;5747;56.748;13.882;2023-07-13T12:57:40;20.50;99.90
11385;DHT22;5747;56.748;13.882;2023-07-13T13:00:24;20.70;99.90
11385;DHT22;5747;56.748;13.882;2023-07-13T13:02:54;20.70;99.90
11385;DHT22;5747;56.748;13.882;2023-07-13T13:05:44;20.40;99.90
11385;DHT22;5747;56.748;13.882;2023-07-13T13:08:13;20.80;99.90
11385;DHT22;5747;56.748;13.882;2023-07-13T13:10:42;20.90;99.90
11385;DHT22;5747;56.748;13.882;2023-07-13T13:13:12;20.80;99.90
11385;DHT22;5747;56.748;13.882;2023-07-13T13:15:40;20.50;99.90
11385;DHT22;5747;56.748;13.882;2023-07-13T13:18:15;20.10;99.90
11385;DHT22;5747;56.748;13.882;2023-07-13T13:20:45;20.20;99.90
11385;DHT22;5747;56.748;13.882;2023-07-13T13:23:14;20.30;99.90
11385;DHT22;5747;56.748;13.882;2023-07-13T13:25:48;20.40;99.90
11385;DHT22;5747;56.748;13.882;2023-07-13T13:28:18;20.60;99.90
11385;DHT22;5747;56.748;13.882;2023-07-13T13:30:48;20.20;99.90
11385;DHT22;5747;56.748;13.882;2023-07-13T13:33:19;19.80;99.90
11385;DHT22;5747;56.748;13.882;2023-07-13T13:35:48;19.80;99.90
11385;DHT22;5747;56.748;13.882;2023-07-13T13:38:19;19.90;99.90
11385;DHT22;5747;56.748;13.882;2023-07-13T13:40:49;20.10;99.90
11385;DHT22;5747;56.748;13.882;2023-07-13T13:43:17;20.40;99.90
11385;DHT22;5747;56.748;13.882;2023-07-13T13:45:46;20.80;99.90
11385;DHT22;5747;56.748;13.882;2023-07-13T13:48:16;20.60;99.90
11385;DHT22;5747;56.748;13.882;2023-07-13T13:50:45;20.00;99.90
11385;DHT22;5747;56.748;13.882;2023-07-13T13:53:14;20.00;99.90
11385;DHT22;5747;56.748;13.882;2023-07-13T13:55:42;20.20;99.90
11385;DHT22;5747;56.748;13.882;2023-07-13T13:58:12;19.80;99.90
11385;DHT22;5747;56.748;13.882;2023-07-13T14:00:40;19.90;99.90
11385;DHT22;5747;56.748;13.882;2023-07-13T14:03:14;19.90;99.90
11385;DHT22;5747;56.748;13.882;2023-07-13T14:05:43;19.80;99.90
11385;DHT22;5747;56.748;13.882;2023-07-13T14:08:14;19.70;99.90
11385;DHT22;5747;56.748;13.882;2023-07-13T14:10:43;19.40;99.90
11385;DHT22;5747;56.748;13.882;2023-07-13T14:13:17;19.30;99.90
11385;DHT22;5747;56.748;13.882;2023-07-13T14:15:46;19.30;99.90
11385;DHT22;5747;56.748;13.882;2023-07-13T14:18:15;19.30;99.90
11385;DHT22;5747;56.748;13.882;2023-07-13T14:20:45;19.60;99.90
11385;DHT22;5747;56.748;13.882;2023-07-13T14:23:14;19.60;99.90
11385;DHT22;5747;56.748;13.882;2023-07-13T14:25:44;19.70;99.90
11385;DHT22;5747;56.748;13.882;2023-07-13T14:28:20;19.60;99.90
11385;DHT22;5747;56.748;13.882;2023-07-13T14:30:49;19.70;99.90
11385;DHT22;5747;56.748;13.882;2023-07-13T14:33:17;19.80;99.90
11385;DHT22;5747;56.748;13.882;2023-07-13T14:35:46;19.50;99.90
11385;DHT22;5747;56.748;13.882;2023-07-13T14:38:18;19.50;99.90
11385;DHT22;5747;56.748;13.882;2023-07-13T14:40:47;19.70;99.90
11385;DHT22;5747;56.748;13.882;2023-07-13T14:43:17;19.60;99.90
11385;DHT22;5747;56.748;13.882;2023-07-13T14:45:48;19.80;99.90
11385;DHT22;5747;56.748;13.882;2023-07-13T14:48:19;19.50;99.90
11385;DHT22;5747;56.748;13.882;2023-07-13T14:50:51;19.30;99.90
11385;DHT22;5747;56.748;13.882;2023-07-13T14:53:21;19.30;99.90
11385;DHT22;5747;56.748;13.882;2023-07-13T14:55:49;19.60;99.90
11385;DHT22;5747;56.748;13.882;2023-07-13T14:58:19;19.60;99.90
11385;DHT22;5747;56.748;13.882;2023-07-13T15:00:47;19.30;99.90
11385;DHT22;5747;56.748;13.882;2023-07-13T15:03:19;19.30;99.90
11385;DHT22;5747;56.748;13.882;2023-07-13T15:05:49;19.30;99.90
11385;DHT22;5747;56.748;13.882;2023-07-13T15:08:18;19.30;99.90
11385;DHT22;5747;56.748;13.882;2023-07-13T15:10:46;19.10;99.90
11385;DHT22;5747;56.748;13.882;2023-07-13T15:13:16;19.10;99.90
11385;DHT22;5747;56.748;13.882;2023-07-13T15:15:50;19.10;99.90
11385;DHT22;5747;56.748;13.882;2023-07-13T15:18:21;19.20;99.90
11385;DHT22;5747;56.748;13.882;2023-07-13T15:20:51;19.30;99.90
11385;DHT22;5747;56.748;13.882;2023-07-13T15:23:22;19.30;99.90
11385;DHT22;5747;56.748;13.882;2023-07-13T15:25:50;19.30;99.90
11385;DHT22;5747;56.748;13.882;2023-07-13T15:28:19;19.30;99.90
11385;DHT22;5747;56.748;13.882;2023-07-13T15:30:49;19.30;99.90
11385;DHT22;5747;56.748;13.882;2023-07-13T15:33:21;19.60;99.90
11385;DHT22;5747;56.748;13.882;2023-07-13T15:35:51;19.80;99.90
11385;DHT22;5747;56.748;13.882;2023-07-13T15:38:22;19.60;99.90
11385;DHT22;5747;56.748;13.882;2023-07-13T15:40:51;19.70;99.90
11385;DHT22;5747;56.748;13.882;2023-07-13T15:43:20;20.00;99.90
11385;DHT22;5747;56.748;13.882;2023-07-13T15:45:50;20.00;99.90
11385;DHT22;5747;56.748;13.882;2023-07-13T15:48:20;20.10;99.90
11385;DHT22;5747;56.748;13.882;2023-07-13T15:50:50;20.00;99.90
11385;DHT22;5747;56.748;13.882;2023-07-13T15:53:22;19.60;99.90